createdAt,value
2023-02-04T00:14:05.596Z,5.8
2023-02-04T00:29:05.707Z,5.7
2023-02-04T00:44:05.627Z,5.6
2023-02-04T00:59:05.713Z,5.4
2023-02-04T01:14:05.626Z,5.4
2023-02-04T01:29:05.728Z,5.4
2023-02-04T01:44:05.620Z,5.4
2023-02-04T01:59:05.701Z,5.5
2023-02-04T02:14:05.626Z,5.4
2023-02-04T02:29:05.690Z,5.4
2023-02-04T02:44:05.599Z,5.4
2023-02-04T02:59:05.648Z,5.4
2023-02-04T03:14:05.681Z,5.4
2023-02-04T03:29:05.688Z,5.4
2023-02-04T03:44:05.685Z,5.4
2023-02-04T03:59:05.724Z,5.4
2023-02-04T04:14:05.649Z,5.4
2023-02-04T04:29:05.699Z,5.4
2023-02-04T04:44:05.680Z,5.4
2023-02-04T04:59:05.707Z,5.4
2023-02-04T05:14:05.627Z,5.4
2023-02-04T05:29:05.719Z,5.4
2023-02-04T05:44:05.715Z,5.4
2023-02-04T05:59:05.687Z,5.4
2023-02-04T06:14:05.622Z,5.4
2023-02-04T06:29:05.707Z,5.4
2023-02-04T06:44:05.722Z,5.4
2023-02-04T06:59:05.720Z,5.4
2023-02-04T07:14:05.670Z,5.4
2023-02-04T07:29:07.151Z,5.4
2023-02-04T07:44:05.642Z,5.4
2023-02-04T07:59:05.707Z,5.4
2023-02-04T08:14:05.613Z,5.5
2023-02-04T08:29:05.699Z,5.5
2023-02-04T08:44:05.661Z,5.6
2023-02-04T08:59:05.722Z,5.7
2023-02-04T09:14:05.650Z,5.8
2023-02-04T09:29:05.633Z,5.9
2023-02-04T09:44:05.624Z,6
2023-02-04T09:59:05.697Z,6.3
2023-02-04T10:14:05.625Z,6.8
2023-02-04T10:29:05.685Z,7.1
2023-02-04T10:44:05.723Z,7.1
2023-02-04T10:59:05.697Z,7.4
2023-02-04T11:14:05.718Z,7.3
2023-02-04T11:29:05.732Z,7.4
2023-02-04T11:44:05.706Z,7.5
2023-02-04T11:59:05.720Z,7.6
2023-02-04T12:14:05.606Z,7.4
2023-02-04T12:29:05.741Z,7.5
2023-02-04T12:44:05.726Z,7.7
2023-02-04T12:59:05.716Z,7.9
2023-02-04T13:14:05.611Z,8.1
2023-02-04T13:29:05.714Z,8.2
2023-02-04T13:44:05.600Z,8.2
2023-02-04T13:59:05.690Z,8
2023-02-04T14:14:05.622Z,8.1
2023-02-04T14:29:05.723Z,8.2
2023-02-04T14:44:05.644Z,8.2
2023-02-04T14:59:05.724Z,8.2
2023-02-04T15:14:05.637Z,8.1
2023-02-04T15:29:05.731Z,8
2023-02-04T15:44:05.593Z,8.1
2023-02-04T15:59:05.668Z,7.9
2023-02-04T16:14:05.693Z,7.9
2023-02-04T16:29:05.690Z,7.8
2023-02-04T16:44:05.717Z,7.6
2023-02-04T16:59:05.699Z,7.6
2023-02-04T17:14:05.681Z,7.4
2023-02-04T17:29:05.688Z,7.2
2023-02-04T17:44:05.613Z,7.1
2023-02-04T17:59:05.703Z,7.1
2023-02-04T18:14:05.668Z,7
2023-02-04T18:29:05.684Z,7
2023-02-04T18:44:05.626Z,6.9
2023-02-04T18:59:05.728Z,6.9
2023-02-04T19:14:05.716Z,6.9
2023-02-04T19:29:05.702Z,6.9
2023-02-04T19:44:05.693Z,6.8
2023-02-04T19:59:05.719Z,6.9
2023-02-04T20:14:05.592Z,6.8
2023-02-04T20:29:05.709Z,6.8
2023-02-04T20:44:05.614Z,6.6
2023-02-04T20:59:05.601Z,6.8
2023-02-04T21:14:05.724Z,6.8
2023-02-04T21:29:05.690Z,6.8
2023-02-04T21:44:05.634Z,6.9
2023-02-04T21:59:05.660Z,6.9
2023-02-04T22:14:05.589Z,7
2023-02-04T22:29:05.787Z,7
2023-02-04T22:44:05.606Z,7.1
2023-02-04T22:59:05.691Z,7
2023-02-04T23:14:05.609Z,6.8
2023-02-04T23:29:05.686Z,6.7
2023-02-04T23:44:05.623Z,6.5
2023-02-04T23:59:05.715Z,6.5
